West Rancho Bernardo (500) Station Data

Red Flag Warning: No
Fire Weather Zone: 250
SDGE Region: North East
Lat/Lon: 33.031/-117.122

Observations

Time Wind Speed/Gust Temp(F) RH Fuel Moist Fuel Temp(F) Dewpt(F) Tmax(F) Tmin(F) Accum Precip 10-min Precip SL Press(mb)
4/29 11:50pm 16 6 G 9 66° 21% - - 25° 80.1° 59.9° - - -
4/29 11:40pm 17 7 G 9 66° 21% - - 24° 80.1° 59.9° - - -
4/29 11:30pm 27 6 G 8 66° 20% - - 24° 80.1° 59.9° - - -
4/29 11:20pm 28 7 G 10 66° 20% - - 24° 80.1° 59.9° - - -
4/29 11:10pm 37 7 G 10 66° 21% - - 24° 80.1° 59.9° - - -
4/29 11:00pm 32 6 G 9 66° 20% - - 24° 80.1° 59.9° - - -
4/29 10:50pm 42 5 G 7 66° 20% - - 24° 80.1° 59.9° - - -
4/29 10:20pm 43 5 G 8 66° 20% - - 24° 80.1° 59.9° - - -
4/29 9:40pm 341 2 G 3 65° 25% - - 28° 80.1° 59.9° - - -
4/29 9:30pm 332 0 G 2 65° 26% - - 29° 80.1° 59.9° - - -
4/29 8:50pm 81 2 G 4 65° 26% - - 29° 80.1° 59.9° - - -
4/29 8:40pm 133 2 G 4 65° 26% - - 30° 80.1° 59.9° - - -
4/29 8:30pm 267 2 G 6 66° 24% - - 28° 80.1° 59.9° - - -
4/29 8:20pm 294 5 G 10 66° 23% - - 27° 80.1° 59.9° - - -
4/29 8:10pm 277 5 G 8 67° 23% - - 28° 80.1° 59.9° - - -
4/29 8:00pm 269 4 G 7 67° 23% - - 28° 80.1° 59.9° - - -
4/29 7:50pm 290 4 G 11 67° 22% - - 27° 80.1° 59.9° - - -
4/29 7:40pm 302 5 G 9 67° 23% - - 28° 80.1° 59.9° - - -
4/29 7:30pm 307 3 G 7 68° 25% - - 30° 80.1° 59.9° - - -
4/29 7:20pm 274 3 G 8 68° 24% - - 30° 80.1° 59.9° - - -
4/29 7:10pm 296 6 G 12 69° 25% - - 31° 80.1° 59.9° - - -
4/29 7:00pm 294 10 G 18 70° 26% - - 34° 80.1° 59.9° - - -
4/29 6:50pm 279 9 G 15 70° 25% - - 33° 80.1° 59.9° - - -
4/29 6:40pm 272 10 G 16 71° 22% - - 31° 80.1° 59.9° - - -
4/29 6:30pm 274 12 G 17 71° 21% - - 29° 80.1° 59.9° - - -
4/29 6:20pm 273 15 G 21 72° 20% - - 28° 80.1° 59.9° - - -
4/29 6:10pm 266 13 G 19 72° 21% - - 29° 80.1° 59.9° - - -
4/29 6:00pm 269 15 G 21 72° 20% - - 30° 80.1° 59.9° - - -
4/29 5:50pm 265 15 G 22 73° 20% - - 29° 80.1° 59.9° - - -
4/29 5:40pm 275 16 G 21 73° 18% - - 27° 80.1° 59.9° - - -
4/29 5:30pm 268 16 G 21 73° 16% - - 25° 80.1° 59.9° - - -
4/29 5:20pm 266 17 G 21 73° 15% - - 23° 80.1° 59.9° - - -
4/29 5:10pm 267 16 G 22 73° 15% - - 23° 80.1° 59.9° - - -
4/29 5:00pm 275 16 G 23 73° 16% - - 25° 80.1° 59.9° - - -
4/29 4:50pm 262 16 G 22 73° 18% - - 27° 80.1° 59.9° - - -
4/29 4:40pm 261 18 G 22 73° 18% - - 27° 80.1° 59.9° - - -
4/29 4:30pm 263 18 G 23 73° 17% - - 26° 80.1° 59.9° - - -
4/29 4:20pm 266 18 G 22 73° 16% - - 24° 80.1° 59.9° - - -
4/29 4:10pm 267 18 G 23 74° 14% - - 21° 80.1° 59.9° - - -
4/29 4:00pm 268 16 G 22 75° 11% - - 17° 80.1° 59.9° - - -
4/29 3:50pm 265 18 G 24 75° 11% - - 17° 80.1° 59.9° - - -
4/29 3:40pm 274 17 G 22 75° 12% - - 18° 80.1° 59.9° - - -
4/29 3:30pm 260 17 G 22 75° 12% - - 20° 80.1° 59.9° - - -
4/29 3:20pm 255 16 G 22 75° 13% - - 20° 80.1° 59.9° - - -
4/29 3:10pm 258 14 G 19 75° 12% - - 19° 80.1° 59.9° - - -
4/29 3:00pm 257 16 G 22 75° 14% - - 22° 80.1° 59.9° - - -
4/29 2:50pm 252 16 G 21 75° 14% - - 23° 80.1° 59.9° - - -
4/29 2:40pm 259 15 G 21 75° 13% - - 22° 80.1° 59.9° - - -
4/29 2:30pm 275 15 G 21 75° 12% - - 20° 80.1° 59.9° - - -
4/29 2:20pm 273 16 G 22 74° 13% - - 19° 80.1° 59.9° - - -
4/29 2:10pm 256 17 G 23 74° 14% - - 22° 80.1° 59.9° - - -
4/29 2:00pm 260 17 G 21 74° 14% - - 22° 80.1° 59.9° - - -
4/29 1:50pm 266 16 G 21 74° 14% - - 22° 80.1° 59.9° - - -
4/29 1:40pm 268 16 G 22 74° 15% - - 23° 80.1° 59.9° - - -
4/29 1:30pm 260 17 G 23 73° 16% - - 25° 80.1° 59.9° - - -
4/29 1:20pm 259 17 G 22 74° 17% - - 26° 80.1° 59.9° - - -
4/29 1:10pm 259 16 G 22 74° 18% - - 29° 80.1° 59.9° - - -
4/29 1:00pm 252 16 G 22 75° 19% - - 31° 80.1° 59.9° - - -
4/29 12:50pm 240 14 G 20 76° 14% - - 24° 80.1° 59.9° - - -
4/29 12:40pm 230 15 G 24 76° 13% - - 23° 80.1° 59.9° - - -
4/29 12:30pm 120 12 G 17 79° 8% - - 13° 80.1° 59.9° - - -
4/29 12:20pm 73 10 G 19 79° 7% - - 11° 79.9° 59.9° - - -
4/29 12:10pm 41 8 G 17 78° 7% - - 79.4° 59.9° - - -
4/29 12:00pm 68 11 G 19 78° 7% - - 79.4° 59.9° - - -
4/29 11:50am 89 9 G 19 78° 7% - - 79.4° 59.9° - - -
4/29 11:40am 65 8 G 16 78° 7% - - 79.4° 59.9° - - -
4/29 11:30am 87 7 G 16 78° 7% - - 10° 79.3° 59.9° - - -
4/29 11:20am 70 11 G 20 77° 8% - - 10° 79° 59.9° - - -
4/29 11:10am 77 7 G 17 78° 8% - - 13° 79° 59.9° - - -
4/29 11:00am 87 6 G 19 77° 9% - - 13° 78.7° 59.9° - - -
4/29 10:50am 338 3 G 9 76° 9% - - 13° 77.4° 59.9° - - -
4/29 10:40am 44 7 G 12 76° 9% - - 14° 76.8° 59.9° - - -
4/29 10:30am 54 8 G 18 76° 9% - - 12° 76.6° 59.9° - - -
4/29 10:20am 26 5 G 14 76° 10% - - 15° 76.6° 59.9° - - -
4/29 10:10am 33 3 G 11 75° 11% - - 17° 76.6° 59.9° - - -
4/29 10:00am 19 4 G 9 75° 11% - - 17° 76° 59.9° - - -
4/29 9:50am 50 4 G 10 74° 11% - - 16° 75.1° 59.9° - - -
4/29 9:40am 5 3 G 6 74° 12% - - 18° 75.1° 59.9° - - -
4/29 9:30am 69 3 G 7 74° 12% - - 18° 74.2° 59.9° - - -
4/29 9:20am 74 4 G 8 72° 12% - - 18° 73.7° 59.9° - - -
4/29 9:10am 45 4 G 8 71° 13% - - 17° 71.8° 59.9° - - -
4/29 9:00am 52 5 G 9 71° 13% - - 17° 71.4° 59.9° - - -
4/29 8:50am 52 7 G 11 70° 13% - - 17° 70.9° 59.9° - - -
4/29 8:40am 60 8 G 12 69° 13% - - 17° 69.8° 59.9° - - -
4/29 8:30am 56 7 G 11 69° 13% - - 16° 69.3° 59.9° - - -
4/29 8:20am 49 8 G 12 68° 12% - - 14° 68.8° 59.9° - - -
4/29 8:10am 51 7 G 11 68° 11% - - 12° 68.4° 59.9° - - -
4/29 8:00am 39 6 G 11 68° 12% - - 14° 68.1° 59.9° - - -
4/29 7:50am 40 7 G 11 68° 12% - - 12° 68° 59.9° - - -
4/29 7:40am 50 7 G 10 67° 12% - - 14° 67.6° 59.9° - - -
4/29 7:30am 45 7 G 10 67° 13% - - 14° 67.6° 59.9° - - -
4/29 7:20am 46 7 G 11 67° 12% - - 13° 67.6° 59.9° - - -
4/29 7:10am 50 8 G 10 67° 12% - - 12° 67.5° 59.9° - - -
4/29 7:00am 45 8 G 12 67° 12% - - 12° 67.3° 59.9° - - -
4/29 6:50am 56 8 G 13 66° 12% - - 13° 66.9° 59.9° - - -
4/29 6:40am 49 8 G 12 66° 13% - - 13° 66.8° 59.9° - - -
4/29 6:30am 43 9 G 12 65° 14% - - 14° 65.9° 59.9° - - -
4/29 6:20am 46 9 G 12 65° 14% - - 14° 65.9° 59.9° - - -
4/29 6:10am 51 9 G 13 65° 14% - - 14° 65.9° 59.9° - - -
4/29 6:00am 55 11 G 15 65° 14% - - 14° 65.9° 59.9° - - -
4/29 5:50am 65 10 G 13 64° 16% - - 16° 65.9° 59.9° - - -
4/29 5:40am 66 11 G 14 64° 17% - - 18° 65.9° 59.9° - - -
4/29 5:30am 56 10 G 13 64° 16% - - 18° 65.9° 59.9° - - -
4/29 5:20am 48 10 G 12 65° 16% - - 18° 65.9° 59.9° - - -
4/29 5:10am 55 10 G 13 65° 15% - - 17° 65.9° 59.9° - - -
4/29 5:00am 47 9 G 12 66° 15% - - 17° 65.9° 59.9° - - -
4/29 4:50am 52 9 G 12 65° 16% - - 18° 65.7° 59.9° - - -
4/29 4:40am 53 9 G 10 65° 18% - - 21° 65.5° 59.9° - - -
4/29 4:30am 50 9 G 11 65° 20% - - 23° 65.5° 59.9° - - -
4/29 4:20am 54 10 G 12 65° 20% - - 23° 65.5° 59.9° - - -
4/29 4:10am 52 11 G 13 65° 22% - - 25° 65.5° 59.9° - - -
4/29 4:00am 50 11 G 13 65° 22% - - 25° 65.5° 59.9° - - -
4/29 3:50am 50 10 G 12 65° 24% - - 27° 65.5° 59.9° - - -
4/29 3:40am 49 10 G 12 65° 25% - - 28° 65.5° 59.9° - - -
4/29 3:30am 49 11 G 12 65° 24% - - 28° 65.5° 59.9° - - -
4/29 3:20am 49 12 G 14 65° 26% - - 29° 65.1° 59.9° - - -
4/29 3:10am 50 12 G 15 64° 28% - - 30° 65.1° 59.9° - - -
4/29 3:00am 49 12 G 15 64° 30% - - 32° 65.1° 59.9° - - -
4/29 2:50am 42 13 G 15 64° 31% - - 33° 64.8° 59.9° - - -
4/29 2:40am 33 14 G 17 63° 39% - - 38° 64.8° 59.9° - - -
4/29 2:30am 34 14 G 15 63° 41% - - 39° 64.8° 59.9° - - -
4/29 2:20am 43 13 G 16 63° 41% - - 39° 64.8° 59.9° - - -
4/29 2:10am 37 11 G 15 63° 45% - - 42° 64.8° 59.9° - - -
4/29 2:00am 28 11 G 12 64° 44% - - 41° 64.8° 59.9° - - -
4/29 1:50am 24 9 G 11 64° 41% - - 40° 64.8° 59.9° - - -
4/29 1:40am 10 8 G 11 62° 49% - - 43° 63.7° 59.9° - - -
4/29 1:30am 4 7 G 10 61° 55% - - 45° 63.6° 59.9° - - -
4/29 1:20am 8 6 G 10 61° 56% - - 45° 63.6° 59.9° - - -
4/29 1:10am 4 7 G 10 61° 57% - - 46° 63.6° 60.1° - - -
4/29 1:00am 11 4 G 7 63° 54% - - 46° 63.6° 60.7° - - -
4/29 12:50am 14 3 G 5 63° 53% - - 46° 63.6° 60.7° - - -
4/29 12:40am 28 3 G 6 62° 57% - - 47° 63.6° 60.7° - - -
4/29 12:30am 14 5 G 8 62° 59% - - 47° 63.6° 60.7° - - -
4/29 12:20am 26 6 G 11 62° 56% - - 46° 63.6° 61.1° - - -
4/29 12:10am 53 4 G 5 63° 52% - - 45° 63.5° 62.5° - - -
4/29 12:00am 71 3 G 4 62° 56% - - 46° 71.3° 54.7° - - -
4/28 11:50pm 71 1 G 2 62° 58% - - 47° 71.3° 54.7° - - -
4/28 11:40pm 285 1 G 2 62° 58% - - 47° 71.3° 54.7° - - -
4/28 11:30pm 51 1 G 4 62° 58% - - 47° 71.3° 54.7° - - -
4/28 11:20pm 51 4 G 6 62° 60% - - 48° 71.3° 54.7° - - -
4/28 11:10pm 57 4 G 5 62° 60% - - 48° 71.3° 54.7° - - -
4/28 11:00pm 58 5 G 6 62° 59% - - 48° 71.3° 54.7° - - -
4/28 10:50pm 58 3 G 5 62° 59% - - 48° 71.3° 54.7° - - -
4/28 10:40pm 54 3 G 4 62° 60% - - 48° 71.3° 54.7° - - -
4/28 10:30pm 43 0 G 2 62° 60% - - 48° 71.3° 54.7° - - -
4/28 10:20pm 340 0 G 1 62° 59% - - 48° 71.3° 54.7° - - -
4/28 10:10pm 57 0 G 1 62° 59% - - 48° 71.3° 54.7° - - -
4/28 10:00pm 70 1 G 2 62° 58% - - 47° 71.3° 54.7° - - -
4/28 9:50pm 85 2 G 2 62° 57% - - 47° 71.3° 54.7° - - -
4/28 9:40pm 125 1 G 3 62° 56% - - 47° 71.3° 54.7° - - -
4/28 9:30pm 40 1 G 3 62° 58% - - 47° 71.3° 54.7° - - -
4/28 9:20pm 28 2 G 5 63° 51% - - 45° 71.3° 54.7° - - -
4/28 9:10pm 348 3 G 5 63° 56% - - 47° 71.3° 54.7° - - -
4/28 9:00pm 13 4 G 6 63° 57% - - 48° 71.3° 54.7° - - -
4/28 8:50pm 1 3 G 5 63° 59% - - 48° 71.3° 54.7° - - -
4/28 8:40pm 352 2 G 5 63° 60% - - 48° 71.3° 54.7° - - -
4/28 8:30pm 348 3 G 6 62° 61% - - 49° 71.3° 54.7° - - -
4/28 8:20pm 289 3 G 5 62° 61% - - 49° 71.3° 54.7° - - -
4/28 8:10pm 280 4 G 7 63° 61% - - 49° 71.3° 54.7° - - -
4/28 8:00pm 289 2 G 3 63° 60% - - 49° 71.3° 54.7° - - -
4/28 7:50pm 241 0 G 2 63° 59% - - 49° 71.3° 54.7° - - -
4/28 7:40pm 237 3 G 5 64° 57% - - 48° 71.3° 54.7° - - -
4/28 7:30pm 269 4 G 7 64° 55% - - 47° 71.3° 54.7° - - -
4/28 7:20pm 272 6 G 13 64° 53% - - 47° 71.3° 54.7° - - -
4/28 7:10pm 271 6 G 11 65° 51% - - 46° 71.3° 54.7° - - -
4/28 7:00pm 263 7 G 12 65° 50% - - 46° 71.3° 54.7° - - -
4/28 6:50pm 256 8 G 12 65° 49% - - 46° 71.3° 54.7° - - -
4/28 6:40pm 270 11 G 21 66° 47% - - 45° 71.3° 54.7° - - -
4/28 6:30pm 273 13 G 22 66° 46% - - 44° 71.3° 54.7° - - -
4/28 6:20pm 270 14 G 19 66° 45% - - 44° 71.3° 54.7° - - -
4/28 6:10pm 273 14 G 19 66° 41% - - 42° 71.3° 54.7° - - -
4/28 6:00pm 290 13 G 20 67° 39% - - 41° 71.3° 54.7° - - -